createdAt,value
2017-08-19T00:00:12.662Z,17.7
2017-08-19T00:02:11.258Z,18.2
2017-08-19T00:03:10.709Z,18.4
2017-08-19T00:04:09.776Z,18.4
2017-08-19T00:05:09.341Z,18.1
2017-08-19T00:07:07.920Z,17.6
2017-08-19T00:12:03.941Z,18.4
2017-08-19T00:15:01.814Z,19.4
2017-08-19T00:17:00.754Z,18.9
2017-08-19T00:17:59.830Z,18.9
2017-08-19T00:20:57.795Z,19.5
2017-08-19T00:21:56.991Z,18.7
2017-08-19T00:22:56.174Z,17.5
2017-08-19T00:23:55.395Z,17.1
2017-08-19T00:24:54.591Z,17.5
2017-08-19T00:25:54.164Z,18
2017-08-19T00:26:53.237Z,17.2
2017-08-19T00:30:50.476Z,18.1
2017-08-19T00:31:49.539Z,18.5
2017-08-19T00:34:47.514Z,16.5
2017-08-19T00:36:45.973Z,16.5
2017-08-19T00:37:16.472Z,16.5
2017-08-19T00:39:44.227Z,17.5
2017-08-19T00:40:14.723Z,17.5
2017-08-19T00:42:41.995Z,18.6
2017-08-19T00:43:40.939Z,19.2
2017-08-19T00:44:40.133Z,19.2
2017-08-19T00:46:38.984Z,19.1
2017-08-19T00:49:36.824Z,19.7
2017-08-19T00:50:07.590Z,19.7
2017-08-19T00:50:37.850Z,20.1
2017-08-19T00:51:08.373Z,20.1
2017-08-19T00:52:34.627Z,20.1
2017-08-19T00:55:32.472Z,19.7
2017-08-19T00:56:31.539Z,19.7
2017-08-19T00:59:29.500Z,20.1
2017-08-19T01:00:28.677Z,20.7
2017-08-19T01:02:27.016Z,19.5
2017-08-19T01:03:26.593Z,19.6
2017-08-19T01:04:25.669Z,19.2
2017-08-19T01:05:25.233Z,19.1
2017-08-19T01:06:24.301Z,19.4
2017-08-19T01:09:22.159Z,19.6
2017-08-19T01:14:18.395Z,19.5
2017-08-19T01:17:16.272Z,19.6
2017-08-19T01:20:14.119Z,19.4
2017-08-19T01:25:10.627Z,19
2017-08-19T01:26:09.587Z,19.5
2017-08-19T01:27:08.910Z,19.1
2017-08-19T01:30:06.640Z,17.3
2017-08-19T01:30:37.023Z,17.3
2017-08-19T01:32:05.290Z,17.7
2017-08-19T01:35:03.037Z,17.7
2017-08-19T01:36:02.412Z,18.2
2017-08-19T01:53:48.993Z,16.7
2017-08-19T02:14:33.711Z,12.5
2017-08-19T02:16:32.175Z,12.5
2017-08-19T02:31:21.333Z,10
2017-08-19T02:32:20.538Z,10.4
2017-08-19T02:36:17.401Z,9.1
2017-08-19T02:36:47.906Z,9.1
2017-08-19T02:49:07.846Z,10.3
2017-08-19T03:18:45.352Z,10.5
2017-08-19T03:19:15.867Z,10.5
2017-08-19T04:14:03.504Z,4.6
2017-08-19T04:30:50.807Z,5.6
2017-08-19T04:31:49.883Z,5.3
2017-08-19T04:40:43.201Z,6.4
2017-08-19T04:57:30.508Z,4.2
2017-08-19T04:59:29.089Z,4.1
2017-08-19T05:02:26.713Z,3.3
2017-08-19T05:04:25.459Z,4.2
2017-08-19T05:04:55.961Z,4.2
2017-08-19T05:05:26.459Z,3.6
2017-08-19T05:05:56.845Z,3.6
2017-08-19T05:06:27.329Z,3.9
2017-08-19T05:07:23.147Z,4
2017-08-19T05:09:21.734Z,5.2
2017-08-19T05:10:20.931Z,4.7
2017-08-19T05:11:19.881Z,3.4
2017-08-19T05:12:19.450Z,3.1
2017-08-19T05:13:18.518Z,2
2017-08-19T05:14:17.702Z,2.4
2017-08-19T05:15:17.049Z,2.6
2017-08-19T05:18:14.783Z,3.2
2017-08-19T05:20:13.257Z,2.2
2017-08-19T05:21:12.831Z,1.7
2017-08-19T05:22:11.917Z,2.3
2017-08-19T05:23:11.105Z,3.3
2017-08-19T05:26:09.077Z,2.7
2017-08-19T05:27:08.159Z,3.2
2017-08-19T05:29:06.757Z,2.7
2017-08-19T05:30:05.842Z,1.6
2017-08-19T05:31:05.047Z,1.6
2017-08-19T05:32:04.272Z,1.5
2017-08-19T05:33:03.477Z,2.4
2017-08-19T05:34:02.672Z,1.4
2017-08-19T05:34:33.063Z,1.4
2017-08-19T05:35:03.584Z,1.1
2017-08-19T05:35:33.844Z,1.1
2017-08-19T05:36:04.235Z,0.5
2017-08-19T05:36:34.623Z,0.5
2017-08-19T05:38:00.017Z,0.2
2017-08-19T05:38:58.981Z,0.8
2017-08-19T05:39:58.561Z,0.9
2017-08-19T05:40:57.642Z,0.1
2017-08-19T05:41:56.829Z,0.1
2017-08-19T05:42:56.021Z,0.4
2017-08-19T05:43:55.217Z,0.8
2017-08-19T05:44:54.400Z,0.9
2017-08-19T05:46:52.976Z,0.7
2017-08-19T05:47:52.556Z,0.7
2017-08-19T05:49:50.619Z,0.9
2017-08-19T05:52:48.499Z,0.3
2017-08-19T05:58:44.297Z,0.2
2017-08-19T06:08:36.503Z,2.5
2017-08-19T06:10:34.850Z,2.1
2017-08-19T06:12:33.698Z,2.1
2017-08-19T06:13:32.904Z,1.1
2017-08-19T06:16:30.400Z,-0.2
2017-08-19T06:18:28.859Z,-0.8
2017-08-19T06:19:28.325Z,-0.7
2017-08-19T06:20:27.520Z,-1
2017-08-19T06:21:26.733Z,-1.7
2017-08-19T06:22:26.073Z,-2.1
2017-08-19T06:27:22.111Z,-3.8
2017-08-19T06:28:21.685Z,-3.4
2017-08-19T06:29:20.647Z,-3.7
2017-08-19T06:30:20.104Z,-3.2
2017-08-19T06:30:50.612Z,-3.2
2017-08-19T06:31:21.005Z,-5.2
2017-08-19T06:31:51.398Z,-5.2
2017-08-19T06:33:17.774Z,117.3
2017-08-19T06:34:16.850Z,117
2017-08-19T06:36:15.593Z,117.4
2017-08-19T06:37:14.785Z,117.2
2017-08-19T06:38:13.790Z,118
2017-08-19T06:39:13.249Z,117.4
2017-08-19T06:40:12.461Z,117.5
2017-08-19T06:41:11.660Z,117.5
2017-08-19T06:41:42.042Z,117.5
2017-08-19T06:42:12.541Z,117.4
2017-08-19T06:42:42.934Z,117.4
2017-08-19T06:48:06.251Z,117.1
2017-08-19T06:49:05.715Z,117.2
2017-08-19T06:50:04.795Z,116.4
2017-08-19T06:51:04.379Z,117.4
2017-08-19T06:52:03.572Z,117
2017-08-19T06:53:02.639Z,117.2
2017-08-19T06:54:02.204Z,117.7
2017-08-19T06:56:00.300Z,117.3
2017-08-19T06:56:59.495Z,117.8
2017-08-19T06:57:58.963Z,117.9
2017-08-19T07:03:54.595Z,-5.6
2017-08-19T07:05:53.066Z,-4.6
2017-08-19T09:09:15.886Z,67.7
2017-08-19T09:10:15.084Z,68.8
2017-08-19T09:11:14.772Z,68.5
2017-08-19T09:12:13.890Z,66.9
2017-08-19T09:13:12.989Z,68
2017-08-19T09:14:12.301Z,68
2017-08-19T09:15:11.995Z,69
2017-08-19T09:16:11.307Z,68.1
2017-08-19T09:17:10.804Z,67.6
2017-08-19T09:18:09.884Z,68.2
2017-08-19T09:19:09.574Z,67.1
2017-08-19T09:20:08.537Z,68.2
2017-08-19T09:21:08.240Z,68.3
2017-08-19T09:23:06.697Z,69.6
2017-08-19T09:24:06.267Z,69.1
2017-08-19T09:26:04.844Z,66.3
2017-08-19T09:28:03.432Z,67.3
2017-08-19T09:29:02.507Z,67.9
2017-08-19T09:31:01.601Z,66.8
2017-08-19T09:32:00.832Z,67.3
2017-08-19T09:33:59.412Z,67.3
2017-08-19T09:34:58.598Z,69
2017-08-19T09:36:57.181Z,69.2
2017-08-19T09:57:43.015Z,64.6
2017-08-19T10:00:41.368Z,64.9
2017-08-19T10:05:37.605Z,61.5
2017-08-19T10:17:29.344Z,62
2017-08-19T10:17:59.609Z,62
2017-08-19T10:23:25.435Z,62.5
2017-08-19T10:24:25.019Z,62.5
2017-08-19T10:25:24.095Z,63.3
2017-08-19T10:27:23.058Z,59.8
2017-08-19T10:28:22.129Z,60.6
2017-08-19T10:50:07.479Z,60.1
2017-08-19T10:51:06.693Z,58.9
2017-08-19T10:56:03.323Z,61.1
2017-08-19T10:59:01.291Z,61.4
2017-08-19T11:01:00.275Z,59
2017-08-19T11:02:58.876Z,58.3
2017-08-19T11:03:58.074Z,57.8
2017-08-19T11:05:56.658Z,57.2
2017-08-19T11:31:40.087Z,51.9
2017-08-19T13:05:41.529Z,35.8
2017-08-19T13:06:40.729Z,34.9
2017-08-19T13:07:40.458Z,33.6
2017-08-19T13:19:33.311Z,34.6
2017-08-19T13:27:28.502Z,36.5
2017-08-19T13:41:21.039Z,34.8
2017-08-19T13:42:20.626Z,34.7
2017-08-19T13:43:19.702Z,34.9
2017-08-19T13:44:19.392Z,36.8
2017-08-19T13:45:18.983Z,35.1
2017-08-19T13:46:18.158Z,36.8
2017-08-19T13:47:17.856Z,34.8
2017-08-19T13:48:17.185Z,34.6
2017-08-19T13:53:14.434Z,35.4
2017-08-19T13:55:13.301Z,34.5
2017-08-19T13:56:12.875Z,33.4
2017-08-19T13:57:12.063Z,32.9
2017-08-19T13:58:11.644Z,32.6
2017-08-19T13:59:11.228Z,34
2017-08-19T14:03:09.087Z,34.3
2017-08-19T14:09:05.410Z,34.6
2017-08-19T14:10:04.984Z,36.8
2017-08-19T14:15:02.009Z,36.8
2017-08-19T14:16:01.716Z,36.5
2017-08-19T14:17:01.411Z,37.4
2017-08-19T14:18:00.618Z,36.8
2017-08-19T14:19:00.210Z,35.4
2017-08-19T14:19:59.818Z,35.2
2017-08-19T14:20:59.017Z,35.8
2017-08-19T14:21:58.586Z,36.8
2017-08-19T14:22:57.779Z,38.8
2017-08-19T14:23:57.488Z,37
2017-08-19T14:24:56.698Z,39.1
2017-08-19T14:25:56.390Z,37.8
2017-08-19T14:26:55.605Z,37.4
2017-08-19T14:27:55.077Z,38.1
2017-08-19T14:29:54.172Z,36.7
2017-08-19T14:30:53.870Z,36.5
2017-08-19T14:31:52.951Z,38.3
2017-08-19T14:40:48.148Z,39.3
2017-08-19T14:48:43.571Z,39.1
2017-08-19T14:49:43.260Z,37.6
2017-08-19T14:50:42.458Z,38.4
2017-08-19T14:51:42.062Z,37.5
2017-08-19T14:52:41.521Z,39.8
2017-08-19T14:53:41.096Z,36.7
2017-08-19T14:56:38.971Z,37.4
2017-08-19T14:57:38.428Z,38.3
2017-08-19T14:58:38.022Z,36.7
2017-08-19T14:59:37.464Z,37.8
2017-08-19T15:00:36.942Z,37.2
2017-08-19T15:01:36.173Z,37.9
2017-08-19T15:04:34.630Z,40.6
2017-08-19T15:05:34.203Z,40
2017-08-19T15:06:33.264Z,37.6
2017-08-19T15:07:32.858Z,37.3
2017-08-19T15:08:32.458Z,37.5
2017-08-19T15:09:31.659Z,38
2017-08-19T15:10:31.349Z,38.3
2017-08-19T15:11:30.533Z,38.7
2017-08-19T15:12:30.233Z,38.6
2017-08-19T15:13:29.304Z,39
2017-08-19T15:14:28.882Z,39.7
2017-08-19T15:17:27.393Z,39.9
2017-08-19T15:19:25.848Z,40.5
2017-08-19T15:20:25.544Z,39.4
2017-08-19T15:21:25.118Z,39.9
2017-08-19T15:23:23.695Z,39.6
2017-08-19T15:24:23.040Z,39.7
2017-08-19T15:25:22.740Z,40.3
2017-08-19T15:27:21.323Z,40.9
2017-08-19T15:28:20.898Z,40.1
2017-08-19T15:29:20.590Z,40.4
2017-08-19T15:30:19.655Z,42
2017-08-19T15:31:19.120Z,40.4
2017-08-19T15:33:18.199Z,40.3
2017-08-19T15:34:17.390Z,41.1
2017-08-19T15:35:16.971Z,41.5
2017-08-19T15:36:16.162Z,40.6
2017-08-19T15:37:15.901Z,40.9
2017-08-19T15:38:15.101Z,41
2017-08-19T15:39:14.692Z,41.2
2017-08-19T15:40:13.892Z,41.4
2017-08-19T15:41:13.462Z,42.4
2017-08-19T15:42:12.650Z,40.9
2017-08-19T15:44:11.742Z,41.6
2017-08-19T15:46:10.708Z,40.7
2017-08-19T15:47:09.667Z,40.8
2017-08-19T15:48:09.239Z,41.2
2017-08-19T15:50:08.322Z,42
2017-08-19T15:52:06.929Z,41.2
2017-08-19T16:02:00.898Z,42.3
2017-08-19T16:37:39.727Z,39.3
2017-08-19T16:43:36.236Z,40.2
2017-08-19T16:48:33.447Z,40
2017-08-19T16:55:28.858Z,41
2017-08-19T17:03:24.166Z,41.9
2017-08-19T17:06:22.650Z,42
2017-08-19T17:07:21.616Z,43.4
2017-08-19T17:11:19.353Z,42.3
2017-08-19T17:13:18.440Z,42.8
2017-08-19T17:16:16.412Z,43.5
2017-08-19T17:23:11.951Z,44.4
2017-08-19T17:24:11.537Z,44.1
2017-08-19T17:26:10.496Z,44.5
2017-08-19T17:27:09.848Z,45.5
2017-08-19T17:29:08.422Z,45.3
2017-08-19T17:30:07.881Z,43.5
2017-08-19T17:31:07.341Z,44.4
2017-08-19T17:32:06.560Z,44.3
2017-08-19T17:33:06.139Z,43.7
2017-08-19T17:33:36.646Z,43.7
2017-08-19T17:37:03.806Z,45.3
2017-08-19T17:41:01.162Z,45.5
2017-08-19T17:46:57.308Z,44.7
2017-08-19T17:47:57.006Z,44.7
2017-08-19T17:53:53.146Z,46.3
2017-08-19T17:54:52.226Z,47
2017-08-19T17:55:51.794Z,47.2
2017-08-19T17:56:50.985Z,47
2017-08-19T17:57:50.563Z,46.3
2017-08-19T17:58:49.755Z,46.3
2017-08-19T17:59:49.337Z,46.7
2017-08-19T18:00:48.913Z,46.4
2017-08-19T18:01:47.751Z,46.3
2017-08-19T18:02:47.354Z,45.7
2017-08-19T18:03:47.061Z,46.1
2017-08-19T18:04:46.146Z,45.9
2017-08-19T18:05:45.850Z,47.1
2017-08-19T18:06:45.051Z,47.2
2017-08-19T18:07:44.248Z,46.7
2017-08-19T18:08:43.933Z,46.6
2017-08-19T18:09:43.023Z,46.7
2017-08-19T18:11:41.864Z,46.8
2017-08-19T18:12:41.429Z,47.6
2017-08-19T18:13:40.522Z,47.1
2017-08-19T18:14:40.007Z,46.3
2017-08-19T18:15:39.345Z,47.6
2017-08-19T18:16:38.807Z,48
2017-08-19T18:17:38.000Z,46.6
2017-08-19T18:18:37.458Z,47.5
2017-08-19T18:19:36.926Z,47.5
2017-08-19T18:20:07.324Z,47.5
2017-08-19T18:20:38.103Z,47.6
2017-08-19T18:21:35.786Z,48
2017-08-19T18:22:34.737Z,48.2
2017-08-19T18:24:33.713Z,49
2017-08-19T18:25:33.293Z,48.3
2017-08-19T18:26:32.482Z,48.6
2017-08-19T18:27:31.694Z,49.1
2017-08-19T18:28:31.396Z,50.1
2017-08-19T18:29:30.472Z,49.6
2017-08-19T18:30:29.825Z,50.2
2017-08-19T18:31:29.279Z,49.6
2017-08-19T18:32:28.871Z,48.4
2017-08-19T18:33:28.058Z,52.7
2017-08-19T18:34:27.013Z,49.6
2017-08-19T18:35:26.710Z,49.5
2017-08-19T18:36:26.059Z,49.5
2017-08-19T18:37:25.245Z,50
2017-08-19T18:38:24.948Z,50.4
2017-08-19T18:39:24.022Z,50
2017-08-19T18:40:23.603Z,50.1
2017-08-19T18:41:23.058Z,49.5
2017-08-19T18:43:21.626Z,49.9
2017-08-19T18:44:21.210Z,49.7
2017-08-19T18:45:20.181Z,50.4
2017-08-19T18:46:19.759Z,49.8
2017-08-19T18:47:18.948Z,49.8
2017-08-19T18:48:18.527Z,50
2017-08-19T18:49:17.731Z,50.2
2017-08-19T18:50:17.426Z,51.1
2017-08-19T18:51:16.613Z,50.5
2017-08-19T18:52:15.701Z,50
2017-08-19T18:53:15.270Z,50.4
2017-08-19T18:54:14.466Z,50.3
2017-08-19T18:55:14.167Z,50.3
2017-08-19T18:56:13.515Z,50.7
2017-08-19T18:57:12.707Z,51.4
2017-08-19T18:58:11.905Z,51.3
2017-08-19T18:59:11.368Z,51.5
2017-08-19T19:00:10.941Z,51
2017-08-19T19:00:41.463Z,51
2017-08-19T19:02:09.353Z,50.5
2017-08-19T19:03:08.929Z,51.4
2017-08-19T19:04:08.138Z,52.5
2017-08-19T19:05:07.830Z,52
2017-08-19T19:06:07.023Z,51.5
2017-08-19T19:07:06.105Z,51.8
2017-08-19T19:08:05.796Z,51.3
2017-08-19T19:09:04.743Z,51.7
2017-08-19T19:10:04.354Z,51.7
2017-08-19T19:11:03.932Z,51.8
2017-08-19T19:12:03.009Z,51.6
2017-08-19T19:13:02.472Z,51.4
2017-08-19T19:14:01.674Z,51.6
2017-08-19T19:14:32.184Z,51.6
2017-08-19T19:16:00.570Z,51.7
2017-08-19T19:17:00.041Z,52.2
2017-08-19T19:18:58.625Z,52.2
2017-08-19T19:19:57.809Z,52.3
2017-08-19T19:20:57.503Z,52.1
2017-08-19T19:21:56.703Z,52.1
2017-08-19T19:22:56.271Z,52
2017-08-19T19:23:55.467Z,52.9
2017-08-19T19:24:54.539Z,52.8
2017-08-19T19:25:54.245Z,52.6
2017-08-19T19:26:53.448Z,53
2017-08-19T19:27:52.627Z,52.6
2017-08-19T19:28:52.341Z,53
2017-08-19T19:29:51.569Z,53
2017-08-19T19:30:50.758Z,52.9
2017-08-19T19:31:50.450Z,53.3
2017-08-19T19:32:49.642Z,53.5
2017-08-19T19:33:50.204Z,53.4
2017-08-19T19:35:47.711Z,54.8
2017-08-19T19:36:46.905Z,53.6
2017-08-19T19:37:46.426Z,54.2
2017-08-19T19:38:45.602Z,54.3
2017-08-19T19:39:44.942Z,54.5
2017-08-19T19:40:44.513Z,54.1
2017-08-19T19:41:43.464Z,54.3
2017-08-19T19:42:42.927Z,54.6
2017-08-19T19:43:42.505Z,55.6
2017-08-19T19:44:41.973Z,54.5
2017-08-19T19:45:41.055Z,55.1
2017-08-19T19:46:40.532Z,55.9
2017-08-19T19:47:39.754Z,55.7
2017-08-19T19:48:39.336Z,55.6
2017-08-19T19:49:38.682Z,56
2017-08-19T19:50:37.645Z,56.1
2017-08-19T19:51:37.361Z,56.4
2017-08-19T19:52:36.436Z,56
2017-08-19T19:53:36.009Z,56.2
2017-08-19T19:54:35.200Z,56.6
2017-08-19T19:55:05.709Z,56.6
2017-08-19T19:55:36.087Z,56.8
2017-08-19T19:56:34.274Z,57.3
2017-08-19T19:57:33.474Z,56.8
2017-08-19T19:58:32.685Z,57.9
2017-08-19T19:59:32.261Z,56.9
2017-08-19T20:00:31.464Z,57.1
2017-08-19T20:01:30.423Z,57.3
2017-08-19T20:02:30.019Z,57.4
2017-08-19T20:03:29.354Z,57.8
2017-08-19T20:04:28.808Z,58.2
2017-08-19T20:05:28.152Z,58
2017-08-19T20:06:27.338Z,57.3
2017-08-19T20:07:26.931Z,57.2
2017-08-19T20:08:26.152Z,57.3
2017-08-19T20:09:25.352Z,58.4
2017-08-19T20:10:24.939Z,57.9
2017-08-19T20:11:24.138Z,58.2
2017-08-19T20:12:23.329Z,58
2017-08-19T20:13:22.907Z,57.6
2017-08-19T20:14:22.080Z,57.8
2017-08-19T20:15:21.531Z,58.1
2017-08-19T20:16:20.726Z,57.9
2017-08-19T20:17:20.428Z,58.4
2017-08-19T20:18:19.513Z,59.2
2017-08-19T20:19:19.097Z,58.5
2017-08-19T20:20:18.295Z,58.8
2017-08-19T20:21:17.376Z,58.3
2017-08-19T20:22:16.964Z,58.3
2017-08-19T20:23:16.426Z,58.7
2017-08-19T20:24:15.276Z,58.5
2017-08-19T20:25:14.852Z,57.7
2017-08-19T20:26:14.061Z,57.7
2017-08-19T20:27:13.403Z,57.7
2017-08-19T20:28:12.745Z,58.2
2017-08-19T20:29:12.340Z,58.4
2017-08-19T20:30:11.578Z,57.9
2017-08-19T20:31:11.168Z,57.7
2017-08-19T20:32:10.376Z,57.9
2017-08-19T20:33:09.452Z,57.6
2017-08-19T20:34:09.133Z,58.4
2017-08-19T20:35:08.088Z,57.8
2017-08-19T20:36:07.789Z,57.7
2017-08-19T20:37:06.858Z,57.6
2017-08-19T20:38:06.444Z,57.7
2017-08-19T20:39:05.519Z,57.9
2017-08-19T20:40:05.104Z,58
2017-08-19T20:41:04.566Z,57.9
2017-08-19T20:42:03.637Z,58.2
2017-08-19T20:43:02.834Z,58.1
2017-08-19T20:44:02.416Z,57.8
2017-08-19T20:45:01.544Z,57.7
2017-08-19T20:46:00.898Z,58
2017-08-19T20:47:00.616Z,57.6
2017-08-19T20:47:59.945Z,58.1
2017-08-19T20:48:58.901Z,57.9
2017-08-19T20:49:58.364Z,57.7
2017-08-19T20:50:28.756Z,57.7
2017-08-19T20:50:59.152Z,57.7
2017-08-19T20:52:56.491Z,57.8
2017-08-19T20:53:55.557Z,57.9
2017-08-19T20:54:55.258Z,58.2
2017-08-19T20:55:54.456Z,58.1
2017-08-19T20:56:53.548Z,58.1
2017-08-19T20:57:53.024Z,58.5
2017-08-19T20:58:52.493Z,58.7
2017-08-19T20:59:51.465Z,58.6
2017-08-19T21:00:50.971Z,58.6
2017-08-19T21:01:50.174Z,58.4
2017-08-19T21:02:49.749Z,58.7
2017-08-19T21:03:48.707Z,58.6
2017-08-19T21:04:48.277Z,59.2
2017-08-19T21:05:47.469Z,59.2
2017-08-19T21:06:47.155Z,59.1
2017-08-19T21:07:46.223Z,59.6
2017-08-19T21:08:45.931Z,59.3
2017-08-19T21:09:45.003Z,59.3
2017-08-19T21:10:44.585Z,59.7
2017-08-19T21:11:43.655Z,59.5
2017-08-19T21:12:43.424Z,59.6
2017-08-19T21:13:42.119Z,59.4
2017-08-19T21:14:41.809Z,59.8
2017-08-19T21:15:40.996Z,59.9
2017-08-19T21:16:40.068Z,60.3
2017-08-19T21:17:39.416Z,59.8
2017-08-19T21:18:38.753Z,59.7
2017-08-19T21:19:38.364Z,59.7
2017-08-19T21:20:37.574Z,59.7
2017-08-19T21:21:36.789Z,60.2
2017-08-19T21:23:35.523Z,60
2017-08-19T21:24:35.097Z,60.2
2017-08-19T21:25:34.177Z,60.2
2017-08-19T21:26:33.387Z,60.7
2017-08-19T21:29:31.232Z,60.3
2017-08-19T21:30:30.924Z,60.5
2017-08-19T21:31:30.388Z,60.2
2017-08-19T21:32:29.360Z,60.8
2017-08-19T21:33:28.953Z,60.8
2017-08-19T21:34:28.065Z,60.9
2017-08-19T21:35:27.531Z,60.9
2017-08-19T21:36:27.000Z,61.1
2017-08-19T21:37:26.090Z,60.8
2017-08-19T21:38:25.272Z,61.1
2017-08-19T21:39:24.972Z,61.7
2017-08-19T21:41:23.553Z,61.5
2017-08-19T21:42:23.001Z,61.9
2017-08-19T21:43:22.193Z,61.7
2017-08-19T21:45:20.677Z,62
2017-08-19T21:46:20.252Z,61.9
2017-08-19T21:48:18.829Z,62.4
2017-08-19T21:49:17.920Z,62.2
2017-08-19T21:50:17.548Z,62.8
2017-08-19T21:51:16.625Z,62.5
2017-08-19T21:53:15.221Z,62.9
2017-08-19T21:54:14.666Z,63
2017-08-19T21:55:13.751Z,62.7
2017-08-19T21:56:13.331Z,62.9
2017-08-19T21:57:12.297Z,62.7
2017-08-19T21:58:11.884Z,62.7
2017-08-19T21:59:11.082Z,63
2017-08-19T22:00:10.651Z,62.9
2017-08-19T22:01:09.851Z,62.6
2017-08-19T22:02:08.921Z,62.6
2017-08-19T22:03:08.501Z,63.2
2017-08-19T22:04:07.692Z,62.7
2017-08-19T22:05:06.763Z,62.7
2017-08-19T22:06:06.333Z,62.6
2017-08-19T22:07:05.525Z,62.7
2017-08-19T22:08:05.217Z,62.6
2017-08-19T22:09:04.165Z,62.7
2017-08-19T22:10:03.756Z,62.8
2017-08-19T22:11:02.969Z,63.7
2017-08-19T22:12:02.421Z,63.5
2017-08-19T22:13:01.484Z,62.8
2017-08-19T22:14:00.692Z,62.6
2017-08-19T22:15:00.158Z,63
2017-08-19T22:15:59.724Z,63.2
2017-08-19T22:16:58.800Z,63.3
2017-08-19T22:17:57.876Z,64
2017-08-19T22:18:57.574Z,63.4
2017-08-19T22:19:56.645Z,63.4
2017-08-19T22:20:55.727Z,63.5
2017-08-19T22:21:26.114Z,63.5
2017-08-19T22:21:56.623Z,63.5
2017-08-19T22:22:54.720Z,63.9
2017-08-19T22:23:53.948Z,63.9
2017-08-19T22:24:53.150Z,63.9
2017-08-19T22:25:52.856Z,64
2017-08-19T22:26:51.927Z,64
2017-08-19T22:27:51.499Z,64.4
2017-08-19T22:28:50.556Z,64.5
2017-08-19T22:29:49.737Z,65
2017-08-19T22:32:47.582Z,64.8
2017-08-19T22:33:47.279Z,65
2017-08-19T22:34:46.235Z,65.1
2017-08-19T22:35:45.579Z,65.1
2017-08-19T22:36:45.279Z,65.3
2017-08-19T22:38:43.535Z,65.6
2017-08-19T22:39:42.742Z,65.3
2017-08-19T22:40:42.077Z,65.2
2017-08-19T22:41:41.645Z,65.2
2017-08-19T22:42:40.841Z,65.5
2017-08-19T22:43:39.919Z,65.8
2017-08-19T22:44:39.369Z,65.7
2017-08-19T22:45:38.702Z,65.8
2017-08-19T22:46:37.908Z,66.3
2017-08-19T22:47:37.491Z,66.1
2017-08-19T22:48:36.690Z,66.7
2017-08-19T22:49:35.773Z,67.7
2017-08-19T22:50:35.359Z,66.7
2017-08-19T22:51:34.582Z,67
2017-08-19T22:52:34.157Z,66.9
2017-08-19T22:53:33.351Z,66.9
2017-08-19T22:54:03.733Z,66.9
2017-08-19T22:54:34.126Z,66.8
2017-08-19T22:56:30.964Z,67.3
2017-08-19T22:57:30.536Z,67.8
2017-08-19T22:58:29.599Z,67.5
2017-08-19T22:59:28.922Z,67.7
2017-08-19T23:00:28.484Z,67.8
2017-08-19T23:01:27.545Z,68.2
2017-08-19T23:02:26.741Z,68.4
2017-08-19T23:03:26.195Z,68.2
2017-08-19T23:04:25.375Z,68.2
2017-08-19T23:05:25.052Z,68.5
2017-08-19T23:06:24.238Z,68.7
2017-08-19T23:07:23.302Z,68.6
2017-08-19T23:08:22.364Z,69.3
2017-08-19T23:09:22.068Z,69.1
2017-08-19T23:10:21.240Z,69.1
2017-08-19T23:11:20.677Z,69.4
2017-08-19T23:12:19.619Z,69.2
2017-08-19T23:13:19.067Z,69.2
2017-08-19T23:14:18.515Z,70
2017-08-19T23:15:17.696Z,70
2017-08-19T23:17:16.529Z,69.4
2017-08-19T23:18:15.705Z,70
2017-08-19T23:19:14.762Z,70.7
2017-08-19T23:20:14.201Z,70.7
2017-08-19T23:22:12.650Z,69.8
2017-08-19T23:23:12.331Z,70.6
2017-08-19T23:24:11.509Z,70.7
2017-08-19T23:25:10.962Z,70.5
2017-08-19T23:26:09.912Z,70.9
2017-08-19T23:27:09.474Z,71.2
2017-08-19T23:28:08.536Z,71.3
2017-08-19T23:29:07.718Z,70.7
2017-08-19T23:30:07.393Z,70.9
2017-08-19T23:31:06.354Z,71.7
2017-08-19T23:32:06.035Z,71.7
2017-08-19T23:33:05.218Z,71.6
2017-08-19T23:34:04.400Z,71.7
2017-08-19T23:35:03.598Z,72.2
2017-08-19T23:36:02.767Z,72
2017-08-19T23:37:02.334Z,71.9
2017-08-19T23:39:00.666Z,71.9
2017-08-19T23:40:00.354Z,71.8
2017-08-19T23:40:59.410Z,71.8
2017-08-19T23:41:58.591Z,72.2
2017-08-19T23:42:57.774Z,72.8
2017-08-19T23:43:57.336Z,73
2017-08-19T23:44:56.395Z,73
2017-08-19T23:45:56.080Z,72.5
2017-08-19T23:46:55.135Z,73.3
2017-08-19T23:47:54.190Z,73.1
2017-08-19T23:48:53.626Z,73.1
2017-08-19T23:49:53.192Z,72.7
2017-08-19T23:50:52.372Z,72.6
2017-08-19T23:51:51.553Z,72.8
2017-08-19T23:52:50.617Z,72.9
2017-08-19T23:53:50.177Z,74
2017-08-19T23:54:49.240Z,73.6
2017-08-19T23:55:48.926Z,74
2017-08-19T23:58:46.235Z,73.4
